createdAt,value
2019-01-25T00:01:35.611Z,99160.73
2019-01-25T00:04:03.679Z,99153.48
2019-01-25T00:06:31.500Z,99156.00
2019-01-25T00:08:59.421Z,99155.64
2019-01-25T00:11:27.301Z,99159.48
2019-01-25T00:13:55.146Z,99158.96
2019-01-25T00:16:22.997Z,99160.96
2019-01-25T00:18:50.923Z,99161.52
2019-01-25T00:21:18.768Z,99163.45
2019-01-25T00:23:46.648Z,99155.33
2019-01-25T00:26:14.462Z,99162.29
2019-01-25T00:28:42.330Z,99164.88
2019-01-25T00:31:10.199Z,99164.62
2019-01-25T00:33:38.015Z,99167.45
2019-01-25T00:36:05.800Z,99163.97
2019-01-25T00:38:33.629Z,99160.27
2019-01-25T00:41:01.461Z,99157.17
2019-01-25T00:43:29.309Z,99171.38
2019-01-25T00:45:57.155Z,99163.16
2019-01-25T00:48:24.920Z,99162.94
2019-01-25T00:50:52.797Z,99165.48
2019-01-25T00:53:20.667Z,99169.94
2019-01-25T00:55:48.496Z,99168.36
2019-01-25T00:58:16.418Z,99169.97
2019-01-25T01:00:44.263Z,99171.68
2019-01-25T01:03:12.086Z,99176.26
2019-01-25T01:05:39.911Z,99175.09
2019-01-25T01:08:43.228Z,99176.38
2019-01-25T01:11:11.102Z,99179.80
2019-01-25T01:13:38.945Z,99183.47
2019-01-25T01:16:06.798Z,99185.11
2019-01-25T01:18:54.037Z,99187.98
2019-01-25T01:21:21.825Z,99187.34
2019-01-25T01:23:49.581Z,99188.80
2019-01-25T01:26:18.456Z,99193.37
2019-01-25T01:28:46.224Z,99191.12
2019-01-25T01:31:14.054Z,99194.99
2019-01-25T01:33:41.849Z,99195.84
2019-01-25T01:36:09.649Z,99196.83
2019-01-25T01:38:37.442Z,99193.28
2019-01-25T01:41:05.300Z,99193.83
2019-01-25T01:43:33.131Z,99194.66
2019-01-25T01:46:00.966Z,99198.27
2019-01-25T01:48:28.825Z,99197.37
2019-01-25T01:50:56.649Z,99204.43
2019-01-25T01:53:24.454Z,99203.72
2019-01-25T01:55:52.296Z,99203.33
2019-01-25T01:58:20.095Z,99204.69
2019-01-25T02:00:47.867Z,99206.84
2019-01-25T02:03:15.651Z,99208.24
2019-01-25T02:06:03.292Z,99211.89
2019-01-25T02:08:36.155Z,99204.87
2019-01-25T02:11:04.696Z,99198.45
2019-01-25T02:13:32.539Z,99197.87
2019-01-25T02:16:00.352Z,99198.91
2019-01-25T02:21:39.391Z,99205.70
2019-01-25T02:24:07.209Z,99203.67
2019-01-25T02:26:34.974Z,99205.55
2019-01-25T02:29:07.807Z,99201.91
2019-01-25T02:31:35.609Z,99202.26
2019-01-25T02:34:03.504Z,99202.77
2019-01-25T02:36:31.289Z,99203.06
2019-01-25T02:38:59.117Z,99211.16
2019-01-25T02:41:26.927Z,99204.64
2019-01-25T02:43:54.747Z,99202.74
2019-01-25T02:46:22.500Z,99199.61
2019-01-25T02:48:50.400Z,99201.61
2019-01-25T02:51:18.178Z,99200.87
2019-01-25T02:53:45.981Z,99200.52
2019-01-25T02:56:14.013Z,99203.67
2019-01-25T02:58:56.882Z,99204.67
2019-01-25T03:01:24.734Z,99202.39
2019-01-25T03:03:52.523Z,99198.61
2019-01-25T03:06:20.330Z,99198.13
2019-01-25T03:08:48.195Z,99200.52
2019-01-25T03:11:16.019Z,99202.06
2019-01-25T03:13:43.829Z,99203.39
2019-01-25T03:16:11.635Z,99197.39
2019-01-25T03:18:39.468Z,99197.33
2019-01-25T03:21:07.265Z,99197.33
2019-01-25T03:23:35.067Z,99198.45
2019-01-25T03:26:02.905Z,99202.13
2019-01-25T03:29:01.062Z,99200.16
2019-01-25T03:31:28.962Z,99199.36
2019-01-25T03:33:56.740Z,99202.80
2019-01-25T03:36:24.535Z,99199.58
2019-01-25T03:38:52.401Z,99207.22
2019-01-25T03:41:20.231Z,99210.61
2019-01-25T03:43:48.022Z,99209.35
2019-01-25T03:46:15.799Z,99213.64
2019-01-25T03:48:53.646Z,99216.91
2019-01-25T03:51:21.404Z,99216.77
2019-01-25T03:53:49.206Z,99216.52
2019-01-25T03:56:17.002Z,99212.51
2019-01-25T03:58:56.870Z,99216.80
2019-01-25T04:01:24.732Z,99219.39
2019-01-25T04:03:52.617Z,99221.52
2019-01-25T04:06:20.443Z,99216.06
2019-01-25T04:08:48.250Z,99212.12
2019-01-25T04:11:16.032Z,99213.48
2019-01-25T04:13:43.787Z,99216.80
2019-01-25T04:16:11.576Z,99215.74
2019-01-25T04:18:39.427Z,99219.39
2019-01-25T04:21:07.263Z,99221.88
2019-01-25T04:23:35.068Z,99221.80
2019-01-25T04:26:02.892Z,99221.13
2019-01-25T04:28:35.733Z,99222.64
2019-01-25T04:31:03.487Z,99223.00
2019-01-25T04:33:31.281Z,99225.64
2019-01-25T04:35:59.119Z,99223.26
2019-01-25T04:38:27.050Z,99225.52
2019-01-25T04:40:54.809Z,99232.61
2019-01-25T04:43:22.617Z,99229.35
2019-01-25T04:45:50.375Z,99235.45
2019-01-25T04:48:23.358Z,99232.81
2019-01-25T04:50:51.155Z,99235.55
2019-01-25T04:53:18.972Z,99234.45
2019-01-25T04:55:46.772Z,99239.29
2019-01-25T04:58:18.382Z,99240.32
2019-01-25T05:00:46.327Z,99233.23
2019-01-25T05:03:34.805Z,99240.68
2019-01-25T05:06:02.714Z,99244.65
2019-01-25T05:08:30.661Z,99237.65
2019-01-25T05:10:58.467Z,99242.06
2019-01-25T05:13:26.268Z,99242.71
2019-01-25T05:15:54.064Z,99239.00
2019-01-25T05:18:21.906Z,99237.13
2019-01-25T05:20:50.884Z,99236.29
2019-01-25T05:23:18.822Z,99240.91
2019-01-25T05:25:46.611Z,99237.16
2019-01-25T05:28:18.737Z,99235.29
2019-01-25T05:31:02.489Z,99235.55
2019-01-25T05:33:30.327Z,99235.91
2019-01-25T05:35:58.126Z,99242.52
2019-01-25T05:38:25.939Z,99238.39
2019-01-25T05:40:53.776Z,99240.97
2019-01-25T05:43:21.604Z,99244.42
2019-01-25T05:45:49.387Z,99249.30
2019-01-25T05:48:17.286Z,99248.20
2019-01-25T05:50:45.094Z,99254.55
2019-01-25T05:53:12.898Z,99258.27
2019-01-25T05:55:40.741Z,99254.72
2019-01-25T05:58:09.029Z,99262.27
2019-01-25T06:00:39.280Z,99261.42
2019-01-25T06:03:12.764Z,99263.00
2019-01-25T06:05:41.516Z,99265.00
2019-01-25T06:11:45.779Z,99277.56
2019-01-25T06:14:14.287Z,99276.36
2019-01-25T06:16:45.545Z,99279.10
2019-01-25T06:19:33.603Z,99278.30
2019-01-25T06:22:13.755Z,99287.00
2019-01-25T06:24:46.787Z,99284.23
2019-01-25T06:27:14.619Z,99279.97
2019-01-25T06:29:49.621Z,99282.16
2019-01-25T06:32:26.805Z,99286.06
2019-01-25T06:34:54.561Z,99294.25
2019-01-25T06:37:22.499Z,99295.50
2019-01-25T06:39:50.319Z,99296.12
2019-01-25T06:42:18.118Z,99297.31
2019-01-25T06:44:45.959Z,99303.41
2019-01-25T06:47:13.748Z,99307.77
2019-01-25T06:49:41.597Z,99316.80
2019-01-25T06:52:09.386Z,99315.61
2019-01-25T06:54:37.227Z,99325.10
2019-01-25T06:57:16.522Z,99329.25
2019-01-25T06:59:44.337Z,99328.99
2019-01-25T07:02:31.732Z,99331.48
2019-01-25T07:04:59.527Z,99332.36
2019-01-25T07:07:37.925Z,99324.45
2019-01-25T07:10:11.736Z,99329.98
2019-01-25T07:12:39.520Z,99336.55
2019-01-25T07:15:09.075Z,99340.97
2019-01-25T07:17:37.352Z,99333.33
2019-01-25T07:20:08.661Z,99333.69
2019-01-25T07:22:36.406Z,99338.88
2019-01-25T07:25:06.551Z,99337.85
2019-01-25T07:27:34.366Z,99331.50
2019-01-25T07:30:02.586Z,99332.98
2019-01-25T07:32:30.427Z,99342.45
2019-01-25T07:34:58.195Z,99340.22
2019-01-25T07:37:31.167Z,99340.58
2019-01-25T07:39:58.954Z,99333.41
2019-01-25T07:42:26.796Z,99339.41
2019-01-25T07:44:54.622Z,99339.64
2019-01-25T07:47:32.826Z,99334.70
2019-01-25T07:50:00.854Z,99304.64
2019-01-25T07:52:28.925Z,99340.05
2019-01-25T07:54:56.921Z,99336.66
2019-01-25T07:57:25.010Z,99339.91
2019-01-25T07:59:53.668Z,99336.64
2019-01-25T08:02:21.541Z,99335.81
2019-01-25T08:04:49.326Z,99333.31
2019-01-25T08:07:17.117Z,99337.61
2019-01-25T08:09:44.961Z,99345.75
2019-01-25T08:12:12.783Z,99346.91
2019-01-25T08:14:40.692Z,99344.74
2019-01-25T08:17:08.488Z,99337.50
2019-01-25T08:19:36.321Z,99340.76
2019-01-25T08:22:04.078Z,99343.02
2019-01-25T08:24:31.920Z,99351.88
2019-01-25T08:27:19.983Z,99352.52
2019-01-25T08:29:47.898Z,99357.40
2019-01-25T08:32:15.692Z,99356.23
2019-01-25T08:34:43.541Z,99356.93
2019-01-25T08:37:30.790Z,99356.48
2019-01-25T08:39:58.628Z,99360.37
2019-01-25T08:42:26.463Z,99364.73
2019-01-25T08:44:54.296Z,99355.63
2019-01-25T08:47:27.301Z,99348.44
2019-01-25T08:49:58.007Z,99346.31
2019-01-25T08:52:27.079Z,99344.95
2019-01-25T08:54:54.859Z,99341.52
2019-01-25T08:57:22.689Z,99345.56
2019-01-25T08:59:50.427Z,99339.88
2019-01-25T09:02:18.230Z,99303.63
2019-01-25T09:04:46.029Z,99338.53
2019-01-25T09:07:13.891Z,99348.70
2019-01-25T09:10:01.159Z,99348.82
2019-01-25T09:12:29.067Z,99353.93
2019-01-25T09:14:56.815Z,99341.23
2019-01-25T09:17:24.652Z,99347.23
2019-01-25T09:19:52.467Z,99351.24
2019-01-25T09:22:20.281Z,99354.05
2019-01-25T09:24:48.074Z,99363.36
2019-01-25T09:27:15.919Z,99359.40
2019-01-25T09:29:43.762Z,99362.35
2019-01-25T09:32:12.221Z,99370.29
2019-01-25T09:34:40.080Z,99372.08
2019-01-25T09:37:07.871Z,99369.13
2019-01-25T09:39:35.685Z,99372.03
2019-01-25T09:42:03.504Z,99373.36
2019-01-25T09:44:31.291Z,99371.83
2019-01-25T09:46:59.085Z,99367.84
2019-01-25T09:49:32.103Z,99367.78
2019-01-25T09:51:59.898Z,99365.81
2019-01-25T09:54:27.657Z,99370.67
2019-01-25T09:56:55.651Z,99384.48
2019-01-25T09:59:23.786Z,99381.88
2019-01-25T10:01:51.601Z,99388.19
2019-01-25T10:04:19.433Z,99389.11
2019-01-25T10:06:47.904Z,99387.86
2019-01-25T10:09:20.771Z,99388.48
2019-01-25T10:11:48.574Z,99389.09
2019-01-25T10:14:16.373Z,99388.70
2019-01-25T10:16:44.168Z,99390.09
2019-01-25T10:19:30.966Z,99385.72
2019-01-25T10:21:58.713Z,99382.34
2019-01-25T10:24:26.539Z,99372.30
2019-01-25T10:26:54.288Z,99372.23
2019-01-25T10:29:22.052Z,99367.05
2019-01-25T10:31:49.941Z,99359.77
2019-01-25T10:34:17.861Z,99354.43
2019-01-25T10:36:45.808Z,99349.77
2019-01-25T10:39:13.557Z,99345.83
2019-01-25T10:41:41.397Z,99355.89
2019-01-25T10:44:09.194Z,99361.23
2019-01-25T10:46:37.028Z,99366.63
2019-01-25T10:49:04.819Z,99372.94
2019-01-25T10:51:32.621Z,99373.10
2019-01-25T10:54:00.443Z,99369.16
2019-01-25T10:56:45.096Z,99368.42
2019-01-25T10:59:12.841Z,99330.01
2019-01-25T11:01:40.582Z,99356.70
2019-01-25T11:04:11.549Z,99359.46
2019-01-25T11:06:38.110Z,99353.37
2019-01-25T11:09:21.130Z,99354.41
2019-01-25T11:11:48.895Z,99360.72
2019-01-25T11:14:16.699Z,99362.04
2019-01-25T11:16:44.487Z,99361.45
2019-01-25T11:19:30.860Z,99359.94
2019-01-25T11:21:58.672Z,99356.35
2019-01-25T11:24:26.416Z,99356.55
2019-01-25T11:26:54.178Z,99351.44
2019-01-25T11:29:22.073Z,99345.55
2019-01-25T11:31:49.857Z,99348.55
2019-01-25T11:34:17.652Z,99340.73
2019-01-25T11:36:45.514Z,99341.10
2019-01-25T11:39:13.316Z,99340.25
2019-01-25T11:41:52.407Z,99339.30
2019-01-25T11:44:20.179Z,99343.02
2019-01-25T11:46:47.999Z,99341.94
2019-01-25T11:49:15.815Z,99340.16
2019-01-25T11:51:43.600Z,99340.15
2019-01-25T11:54:11.364Z,99341.27
2019-01-25T11:56:39.160Z,99340.88
2019-01-25T11:59:06.936Z,99343.51
2019-01-25T12:01:34.750Z,99350.77
2019-01-25T12:04:02.610Z,99349.42
2019-01-25T12:06:30.415Z,99346.57
2019-01-25T12:08:58.245Z,99345.66
2019-01-25T12:11:26.032Z,99347.03
2019-01-25T12:13:53.817Z,99349.09
2019-01-25T12:16:21.655Z,99344.83
2019-01-25T12:18:54.834Z,99345.16
2019-01-25T12:21:23.660Z,99348.82
2019-01-25T12:23:51.438Z,99343.49
2019-01-25T12:26:19.300Z,99343.67
2019-01-25T12:28:47.045Z,99340.30
2019-01-25T12:31:14.956Z,99340.38
2019-01-25T12:33:42.742Z,99343.73
2019-01-25T12:36:10.540Z,99341.43
2019-01-25T12:38:38.422Z,99331.69
2019-01-25T12:41:06.213Z,99326.97
2019-01-25T12:43:34.048Z,99327.24
2019-01-25T12:46:01.861Z,99325.50
2019-01-25T12:48:29.772Z,99321.70
2019-01-25T12:51:19.532Z,99316.20
2019-01-25T12:53:47.346Z,99313.03
2019-01-25T12:56:15.141Z,99303.02
2019-01-25T12:58:42.964Z,99301.72
2019-01-25T13:01:11.477Z,99305.28
2019-01-25T13:03:39.420Z,99306.66
2019-01-25T13:06:08.107Z,99303.55
2019-01-25T13:08:35.876Z,99306.73
2019-01-25T13:11:04.138Z,99310.20
2019-01-25T13:13:31.945Z,99310.44
2019-01-25T13:15:59.993Z,99303.55
2019-01-25T13:18:27.972Z,99309.03
2019-01-25T13:20:55.860Z,99309.56
2019-01-25T13:23:23.631Z,99306.15
2019-01-25T13:25:52.263Z,99309.91
2019-01-25T13:28:20.620Z,99305.58
2019-01-25T13:30:48.432Z,99308.36
2019-01-25T13:33:16.343Z,99315.84
2019-01-25T13:35:44.089Z,99312.14
2019-01-25T13:38:11.893Z,99313.77
2019-01-25T13:40:39.691Z,99320.14
2019-01-25T13:43:07.536Z,99319.55
2019-01-25T13:45:35.376Z,99314.70
2019-01-25T13:48:08.456Z,99314.91
2019-01-25T13:50:36.255Z,99311.80
2019-01-25T13:53:04.043Z,99314.55
2019-01-25T13:55:32.633Z,99319.19
2019-01-25T13:58:25.010Z,99318.50
2019-01-25T14:00:52.841Z,99315.97
2019-01-25T14:03:20.578Z,99324.50
2019-01-25T14:05:48.342Z,99308.78
2019-01-25T14:08:16.288Z,99306.16
2019-01-25T14:10:44.208Z,99303.52
2019-01-25T14:13:11.962Z,99303.94
2019-01-25T14:15:39.789Z,99306.64
2019-01-25T14:18:07.637Z,99305.26
2019-01-25T14:20:35.411Z,99303.19
2019-01-25T14:23:03.155Z,99300.86
2019-01-25T14:25:30.992Z,99310.27
2019-01-25T14:27:58.942Z,99309.36
2019-01-25T14:30:30.609Z,99308.95
2019-01-25T14:33:03.056Z,99307.36
2019-01-25T14:35:44.099Z,99304.20
2019-01-25T14:38:28.637Z,99303.19
2019-01-25T14:40:56.463Z,99301.54
2019-01-25T14:43:25.594Z,99304.05
2019-01-25T14:46:09.837Z,99311.92
2019-01-25T14:48:38.321Z,99305.95
2019-01-25T14:51:06.472Z,99313.70
2019-01-25T14:53:34.258Z,99314.00
2019-01-25T14:56:02.066Z,99320.48
2019-01-25T14:58:31.780Z,99336.14
2019-01-25T15:01:03.743Z,99333.69
2019-01-25T15:03:31.574Z,99321.46
2019-01-25T15:05:59.407Z,99317.57
2019-01-25T15:08:27.219Z,99312.26
2019-01-25T15:10:55.049Z,99313.25
2019-01-25T15:13:23.204Z,99308.79
2019-01-25T15:15:50.979Z,99303.05
2019-01-25T15:18:23.813Z,99304.50
2019-01-25T15:20:51.628Z,99303.81
2019-01-25T15:23:19.444Z,99304.19
2019-01-25T15:25:47.317Z,99294.49
2019-01-25T15:28:15.185Z,99297.36
2019-01-25T15:30:42.995Z,99300.83
2019-01-25T15:33:10.839Z,99295.78
2019-01-25T15:35:38.633Z,99298.86
2019-01-25T15:38:11.521Z,99294.09
2019-01-25T15:40:39.346Z,99302.12
2019-01-25T15:43:07.192Z,99294.41
2019-01-25T15:45:35.181Z,99289.16
2019-01-25T15:48:03.451Z,99292.67
2019-01-25T15:50:32.486Z,99293.14
2019-01-25T15:53:00.274Z,99279.67
2019-01-25T15:55:28.184Z,99284.56
2019-01-25T15:57:56.059Z,99279.09
2019-01-25T16:00:25.862Z,99291.32
2019-01-25T16:02:53.746Z,99295.61
2019-01-25T16:05:23.126Z,99306.31
2019-01-25T16:07:51.151Z,99310.61
2019-01-25T16:10:19.997Z,99303.85
2019-01-25T16:12:48.049Z,99307.10
2019-01-25T16:15:21.873Z,99297.30
2019-01-25T16:17:51.917Z,99301.42
2019-01-25T16:20:19.910Z,99310.25
2019-01-25T16:22:50.528Z,99317.50
2019-01-25T16:25:22.456Z,99318.61
2019-01-25T16:27:50.397Z,99318.44
2019-01-25T16:30:25.219Z,99321.34
2019-01-25T16:32:56.293Z,99321.58
2019-01-25T16:35:24.130Z,99321.31
2019-01-25T16:37:52.180Z,99319.30
2019-01-25T16:40:22.411Z,99323.86
2019-01-25T16:42:53.076Z,99328.95
2019-01-25T16:45:36.499Z,99327.18
2019-01-25T16:48:05.059Z,99331.71
2019-01-25T16:50:33.280Z,99323.48
2019-01-25T16:53:01.063Z,99320.34
2019-01-25T16:55:30.198Z,99326.38
2019-01-25T16:57:58.070Z,99323.17
2019-01-25T17:00:29.199Z,99321.71
2019-01-25T17:02:57.142Z,99328.83
2019-01-25T17:05:25.924Z,99324.98
2019-01-25T17:07:53.915Z,99321.61
2019-01-25T17:10:21.706Z,99325.08
2019-01-25T17:12:49.518Z,99331.07
2019-01-25T17:15:17.309Z,99332.53
2019-01-25T17:17:45.281Z,99335.84
2019-01-25T17:20:20.026Z,99341.66
2019-01-25T17:22:44.091Z,99330.02
2019-01-25T17:25:12.129Z,99335.45
2019-01-25T17:27:42.512Z,99326.91
2019-01-25T17:30:18.617Z,99324.56
2019-01-25T17:33:02.316Z,99320.16
2019-01-25T17:35:31.937Z,99306.16
2019-01-25T17:38:02.148Z,99299.02
2019-01-25T17:40:46.406Z,99301.41
2019-01-25T17:43:09.829Z,99305.59
2019-01-25T17:45:37.597Z,99317.17
2019-01-25T17:48:06.617Z,99314.19
2019-01-25T17:50:34.382Z,99314.04
2019-01-25T17:53:02.344Z,99309.02
2019-01-25T17:55:30.169Z,99306.59
2019-01-25T17:57:58.047Z,99303.46
2019-01-25T18:00:30.874Z,99292.11
2019-01-25T18:02:58.647Z,99289.91
2019-01-25T18:05:26.620Z,99291.45
2019-01-25T18:07:59.653Z,99298.77
2019-01-25T18:10:27.474Z,99302.38
2019-01-25T18:13:00.122Z,99307.66
2019-01-25T18:15:30.223Z,99303.22
2019-01-25T18:18:00.834Z,99296.53
2019-01-25T18:20:29.888Z,99295.91
2019-01-25T18:22:59.454Z,99298.52
2019-01-25T18:26:12.979Z,99288.62
2019-01-25T18:29:06.513Z,99284.22
2019-01-25T18:31:37.840Z,99280.38
2019-01-25T18:34:08.583Z,99282.25
2019-01-25T18:36:36.748Z,99284.03
2019-01-25T18:39:07.867Z,99277.82
2019-01-25T18:41:36.889Z,99277.55
2019-01-25T18:44:09.379Z,99269.87
2019-01-25T18:46:41.657Z,99274.88
2019-01-25T18:49:09.537Z,99271.13
2019-01-25T18:51:39.322Z,99270.30
2019-01-25T18:54:26.594Z,99270.04
2019-01-25T18:56:54.917Z,99272.22
2019-01-25T18:59:27.938Z,99273.22
2019-01-25T19:02:04.944Z,99272.31
2019-01-25T19:04:32.793Z,99274.19
2019-01-25T19:07:00.649Z,99271.11
2019-01-25T19:09:28.517Z,99274.40
2019-01-25T19:11:56.377Z,99271.77
2019-01-25T19:14:24.188Z,99278.16
2019-01-25T19:16:52.019Z,99274.41
2019-01-25T19:19:19.843Z,99269.80
2019-01-25T19:21:47.668Z,99268.70
2019-01-25T19:24:15.533Z,99275.47
2019-01-25T19:26:43.311Z,99275.53
2019-01-25T19:29:11.303Z,99271.85
2019-01-25T19:31:43.961Z,99270.30
2019-01-25T19:34:18.440Z,99270.28
2019-01-25T19:36:50.388Z,99268.31
2019-01-25T19:39:21.333Z,99283.83
2019-01-25T19:41:49.193Z,99282.55
2019-01-25T19:44:23.832Z,99272.69
2019-01-25T19:46:53.108Z,99257.72
2019-01-25T19:49:23.462Z,99246.86
2019-01-25T19:51:54.339Z,99252.02
2019-01-25T19:54:25.302Z,99249.03
2019-01-25T19:56:57.809Z,99252.20
2019-01-25T19:59:29.092Z,99245.22
2019-01-25T20:02:01.434Z,99235.91
2019-01-25T20:04:31.361Z,99228.28
2019-01-25T20:07:01.835Z,99231.34
2019-01-25T20:09:37.313Z,99233.95
2019-01-25T20:12:07.394Z,99229.52
2019-01-25T20:14:41.123Z,99231.80
2019-01-25T20:17:10.156Z,99224.55
2019-01-25T20:19:38.007Z,99222.27
2019-01-25T20:22:07.501Z,99218.61
2019-01-25T20:24:40.980Z,99218.59
2019-01-25T20:27:11.164Z,99213.16
2019-01-25T20:29:45.021Z,99175.38
2019-01-25T20:32:21.621Z,99206.38
2019-01-25T20:34:50.098Z,99200.30
2019-01-25T20:37:18.097Z,99200.41
2019-01-25T20:39:52.438Z,99195.89
2019-01-25T20:42:21.195Z,99200.13
2019-01-25T20:44:50.386Z,99203.50
2019-01-25T20:47:18.647Z,99202.11
2019-01-25T20:49:48.403Z,99198.80
2019-01-25T20:52:16.264Z,99198.25
2019-01-25T20:54:58.918Z,99193.50
2019-01-25T20:57:34.238Z,99190.88
2019-01-25T21:00:08.381Z,99184.22
2019-01-25T21:02:36.311Z,99185.06
2019-01-25T21:05:05.239Z,99185.41
2019-01-25T21:07:38.153Z,99188.95
2019-01-25T21:10:10.520Z,99184.84
2019-01-25T21:12:38.433Z,99183.13
2019-01-25T21:15:08.883Z,99185.61
2019-01-25T21:17:36.694Z,99170.59
2019-01-25T21:20:09.177Z,99174.62
2019-01-25T21:22:36.987Z,99171.33
2019-01-25T21:25:05.233Z,99167.08
2019-01-25T21:27:33.200Z,99166.94
2019-01-25T21:30:01.014Z,99161.36
2019-01-25T21:32:31.469Z,99150.07
2019-01-25T21:34:59.861Z,99144.30
2019-01-25T21:37:28.149Z,99135.09
2019-01-25T21:39:55.966Z,99133.64
2019-01-25T21:42:23.997Z,99130.60
2019-01-25T21:44:51.800Z,99120.63
2019-01-25T21:47:19.676Z,99127.16
2019-01-25T21:49:47.772Z,99124.31
2019-01-25T21:52:15.948Z,99118.48
2019-01-25T21:54:43.885Z,99114.52
2019-01-25T21:57:11.770Z,99115.33
2019-01-25T21:59:39.572Z,99120.02
2019-01-25T22:02:08.122Z,99111.35
2019-01-25T22:04:36.838Z,99108.33
2019-01-25T22:07:05.499Z,99103.92
2019-01-25T22:09:33.342Z,99100.56
2019-01-25T22:12:07.807Z,99102.89
2019-01-25T22:14:35.613Z,99095.89
2019-01-25T22:17:03.502Z,99087.30
2019-01-25T22:19:31.416Z,99096.14
2019-01-25T22:21:59.326Z,99089.14
2019-01-25T22:24:27.107Z,99090.80
2019-01-25T22:26:54.944Z,99092.70
2019-01-25T22:29:23.177Z,99090.27
2019-01-25T22:31:51.013Z,99080.53
2019-01-25T22:34:18.793Z,99080.45
2019-01-25T22:36:46.636Z,99076.48
2019-01-25T22:39:14.559Z,99067.95
2019-01-25T22:41:42.372Z,99059.21
2019-01-25T22:44:10.148Z,99069.38
2019-01-25T22:46:37.932Z,99065.89
2019-01-25T22:49:10.883Z,99058.91
2019-01-25T22:51:38.625Z,99056.67
2019-01-25T22:54:06.388Z,99055.44
2019-01-25T22:56:34.195Z,99048.34
2019-01-25T22:59:02.320Z,99047.34
2019-01-25T23:01:34.368Z,99042.14
2019-01-25T23:04:26.588Z,99045.88
2019-01-25T23:07:07.134Z,99041.52
2019-01-25T23:09:56.257Z,99035.59
2019-01-25T23:12:24.273Z,99035.95
2019-01-25T23:14:52.067Z,99034.02
2019-01-25T23:17:20.130Z,99029.22
2019-01-25T23:19:47.937Z,99027.25
2019-01-25T23:22:15.942Z,99026.77
2019-01-25T23:24:43.796Z,99022.15
2019-01-25T23:27:11.812Z,99023.48
2019-01-25T23:29:39.659Z,99020.51
2019-01-25T23:32:07.446Z,99014.92
2019-01-25T23:34:36.010Z,99014.86
2019-01-25T23:37:04.193Z,99006.47
2019-01-25T23:39:32.022Z,99007.20
2019-01-25T23:41:59.839Z,99003.19
2019-01-25T23:44:29.932Z,99009.73
2019-01-25T23:46:57.761Z,99009.35
2019-01-25T23:49:25.580Z,99012.41
2019-01-25T23:51:53.355Z,99000.41
2019-01-25T23:54:21.233Z,98998.44
2019-01-25T23:56:49.014Z,99002.98
2019-01-25T23:59:16.800Z,98995.53
